sensor_id;sensor_type;location;lat;lon;timestamp;P1;durP1;ratioP1;P2;durP2;ratioP2
58360;SDS011;44164;44.954;10.068;2022-09-12T00:01:39;4.53;;;1.95;;
58360;SDS011;44164;44.954;10.068;2022-09-12T00:04:05;4.57;;;1.80;;
58360;SDS011;44164;44.954;10.068;2022-09-12T00:06:32;4.13;;;1.75;;
58360;SDS011;44164;44.954;10.068;2022-09-12T00:09:01;2.47;;;1.40;;
58360;SDS011;44164;44.954;10.068;2022-09-12T00:11:29;2.28;;;1.52;;
58360;SDS011;44164;44.954;10.068;2022-09-12T00:13:59;2.10;;;1.42;;
58360;SDS011;44164;44.954;10.068;2022-09-12T00:16:26;3.38;;;1.95;;
58360;SDS011;44164;44.954;10.068;2022-09-12T00:21:20;2.58;;;1.92;;
58360;SDS011;44164;44.954;10.068;2022-09-12T00:23:47;2.20;;;1.60;;
58360;SDS011;44164;44.954;10.068;2022-09-12T00:26:15;3.17;;;1.98;;
58360;SDS011;44164;44.954;10.068;2022-09-12T00:28:42;2.67;;;1.80;;
58360;SDS011;44164;44.954;10.068;2022-09-12T00:31:13;2.40;;;1.75;;
58360;SDS011;44164;44.954;10.068;2022-09-12T00:33:41;3.10;;;1.70;;
58360;SDS011;44164;44.954;10.068;2022-09-12T00:36:09;3.53;;;2.20;;
58360;SDS011;44164;44.954;10.068;2022-09-12T00:38:36;3.05;;;1.70;;
58360;SDS011;44164;44.954;10.068;2022-09-12T00:41:07;2.40;;;1.70;;
58360;SDS011;44164;44.954;10.068;2022-09-12T00:46:13;2.72;;;1.70;;
58360;SDS011;44164;44.954;10.068;2022-09-12T00:48:41;2.90;;;1.67;;
58360;SDS011;44164;44.954;10.068;2022-09-12T00:51:09;2.53;;;1.88;;
58360;SDS011;44164;44.954;10.068;2022-09-12T00:53:36;3.60;;;1.67;;
58360;SDS011;44164;44.954;10.068;2022-09-12T00:56:03;3.80;;;2.10;;
58360;SDS011;44164;44.954;10.068;2022-09-12T00:58:39;3.03;;;1.80;;
58360;SDS011;44164;44.954;10.068;2022-09-12T01:01:09;3.58;;;1.52;;
58360;SDS011;44164;44.954;10.068;2022-09-12T01:03:35;2.83;;;1.98;;
58360;SDS011;44164;44.954;10.068;2022-09-12T01:06:13;4.00;;;1.60;;
58360;SDS011;44164;44.954;10.068;2022-09-12T01:08:42;3.03;;;1.90;;
58360;SDS011;44164;44.954;10.068;2022-09-12T01:11:08;2.87;;;1.80;;
58360;SDS011;44164;44.954;10.068;2022-09-12T01:13:36;5.88;;;2.28;;
58360;SDS011;44164;44.954;10.068;2022-09-12T01:16:03;3.25;;;1.88;;
58360;SDS011;44164;44.954;10.068;2022-09-12T01:38:09;2.97;;;1.55;;
58360;SDS011;44164;44.954;10.068;2022-09-12T01:45:44;2.92;;;1.70;;
58360;SDS011;44164;44.954;10.068;2022-09-12T01:48:18;2.50;;;1.70;;
58360;SDS011;44164;44.954;10.068;2022-09-12T01:50:49;3.97;;;2.13;;
58360;SDS011;44164;44.954;10.068;2022-09-12T01:53:33;2.97;;;1.75;;
58360;SDS011;44164;44.954;10.068;2022-09-12T01:56:21;2.95;;;1.80;;
58360;SDS011;44164;44.954;10.068;2022-09-12T02:01:30;4.50;;;1.85;;
58360;SDS011;44164;44.954;10.068;2022-09-12T02:04:12;3.15;;;1.80;;
58360;SDS011;44164;44.954;10.068;2022-09-12T02:06:45;2.88;;;1.77;;
58360;SDS011;44164;44.954;10.068;2022-09-12T02:09:20;3.03;;;1.80;;
58360;SDS011;44164;44.954;10.068;2022-09-12T02:11:49;4.22;;;2.20;;
58360;SDS011;44164;44.954;10.068;2022-09-12T02:14:19;2.15;;;1.45;;
58360;SDS011;44164;44.954;10.068;2022-09-12T02:16:59;2.92;;;1.50;;
58360;SDS011;44164;44.954;10.068;2022-09-12T02:19:33;2.42;;;1.55;;
58360;SDS011;44164;44.954;10.068;2022-09-12T02:22:01;3.05;;;1.63;;
58360;SDS011;44164;44.954;10.068;2022-09-12T02:27:06;2.80;;;1.70;;
58360;SDS011;44164;44.954;10.068;2022-09-12T02:29:36;2.60;;;1.70;;
58360;SDS011;44164;44.954;10.068;2022-09-12T02:32:09;3.95;;;1.70;;
58360;SDS011;44164;44.954;10.068;2022-09-12T02:34:43;2.83;;;1.60;;
58360;SDS011;44164;44.954;10.068;2022-09-12T02:39:57;2.53;;;1.60;;
58360;SDS011;44164;44.954;10.068;2022-09-12T02:42:24;3.58;;;2.08;;
58360;SDS011;44164;44.954;10.068;2022-09-12T02:44:50;3.05;;;1.80;;
58360;SDS011;44164;44.954;10.068;2022-09-12T02:47:52;3.40;;;1.90;;
58360;SDS011;44164;44.954;10.068;2022-09-12T02:50:22;2.60;;;1.70;;
58360;SDS011;44164;44.954;10.068;2022-09-12T02:52:49;2.90;;;1.48;;
58360;SDS011;44164;44.954;10.068;2022-09-12T02:55:18;2.58;;;1.70;;
58360;SDS011;44164;44.954;10.068;2022-09-12T02:57:44;3.42;;;1.73;;
58360;SDS011;44164;44.954;10.068;2022-09-12T03:00:10;2.92;;;1.80;;
58360;SDS011;44164;44.954;10.068;2022-09-12T03:05:52;3.38;;;1.48;;
58360;SDS011;44164;44.954;10.068;2022-09-12T03:08:37;3.88;;;1.75;;
58360;SDS011;44164;44.954;10.068;2022-09-12T03:11:28;3.28;;;1.90;;
58360;SDS011;44164;44.954;10.068;2022-09-12T03:17:21;2.85;;;1.70;;
58360;SDS011;44164;44.954;10.068;2022-09-12T03:20:06;4.10;;;1.63;;
58360;SDS011;44164;44.954;10.068;2022-09-12T03:28:15;2.90;;;1.80;;
58360;SDS011;44164;44.954;10.068;2022-09-12T03:30:46;2.92;;;1.73;;
58360;SDS011;44164;44.954;10.068;2022-09-12T03:33:17;2.20;;;1.60;;
58360;SDS011;44164;44.954;10.068;2022-09-12T03:35:44;3.15;;;1.60;;
58360;SDS011;44164;44.954;10.068;2022-09-12T03:38:11;2.85;;;1.55;;
58360;SDS011;44164;44.954;10.068;2022-09-12T03:40:38;3.55;;;1.58;;
58360;SDS011;44164;44.954;10.068;2022-09-12T03:43:04;3.05;;;1.77;;
58360;SDS011;44164;44.954;10.068;2022-09-12T03:45:32;2.83;;;1.58;;
58360;SDS011;44164;44.954;10.068;2022-09-12T03:47:58;2.88;;;1.45;;
58360;SDS011;44164;44.954;10.068;2022-09-12T03:50:25;2.60;;;1.27;;
58360;SDS011;44164;44.954;10.068;2022-09-12T03:52:51;2.05;;;1.55;;
58360;SDS011;44164;44.954;10.068;2022-09-12T03:55:17;2.95;;;1.52;;
58360;SDS011;44164;44.954;10.068;2022-09-12T03:57:44;2.88;;;1.70;;
58360;SDS011;44164;44.954;10.068;2022-09-12T04:00:10;2.28;;;1.70;;
58360;SDS011;44164;44.954;10.068;2022-09-12T04:02:39;4.07;;;1.60;;
58360;SDS011;44164;44.954;10.068;2022-09-12T04:05:05;3.72;;;1.60;;
58360;SDS011;44164;44.954;10.068;2022-09-12T04:07:32;2.42;;;1.75;;
58360;SDS011;44164;44.954;10.068;2022-09-12T04:09:58;3.45;;;1.75;;
58360;SDS011;44164;44.954;10.068;2022-09-12T04:12:24;4.25;;;1.83;;
58360;SDS011;44164;44.954;10.068;2022-09-12T04:14:50;4.63;;;1.73;;
58360;SDS011;44164;44.954;10.068;2022-09-12T04:17:16;2.83;;;1.77;;
58360;SDS011;44164;44.954;10.068;2022-09-12T04:19:42;2.25;;;1.40;;
58360;SDS011;44164;44.954;10.068;2022-09-12T04:22:09;3.25;;;1.70;;
58360;SDS011;44164;44.954;10.068;2022-09-12T04:24:35;2.72;;;1.40;;
58360;SDS011;44164;44.954;10.068;2022-09-12T04:27:01;2.83;;;1.58;;
58360;SDS011;44164;44.954;10.068;2022-09-12T04:29:27;3.08;;;1.40;;
58360;SDS011;44164;44.954;10.068;2022-09-12T04:31:54;2.50;;;1.63;;
58360;SDS011;44164;44.954;10.068;2022-09-12T04:34:20;3.17;;;1.60;;
58360;SDS011;44164;44.954;10.068;2022-09-12T04:36:46;4.25;;;1.80;;
58360;SDS011;44164;44.954;10.068;2022-09-12T04:39:12;4.47;;;1.73;;
58360;SDS011;44164;44.954;10.068;2022-09-12T04:41:38;2.45;;;1.55;;
58360;SDS011;44164;44.954;10.068;2022-09-12T04:46:34;3.10;;;1.60;;
58360;SDS011;44164;44.954;10.068;2022-09-12T04:49:02;3.15;;;1.73;;
58360;SDS011;44164;44.954;10.068;2022-09-12T04:51:29;3.70;;;1.77;;
58360;SDS011;44164;44.954;10.068;2022-09-12T04:53:57;3.28;;;1.80;;
58360;SDS011;44164;44.954;10.068;2022-09-12T04:56:25;3.00;;;1.77;;
58360;SDS011;44164;44.954;10.068;2022-09-12T04:58:52;2.25;;;1.60;;
58360;SDS011;44164;44.954;10.068;2022-09-12T05:01:19;3.05;;;1.70;;
58360;SDS011;44164;44.954;10.068;2022-09-12T05:03:47;2.17;;;1.40;;
58360;SDS011;44164;44.954;10.068;2022-09-12T05:06:16;3.07;;;1.87;;
58360;SDS011;44164;44.954;10.068;2022-09-12T05:08:44;2.80;;;1.63;;
58360;SDS011;44164;44.954;10.068;2022-09-12T05:11:12;3.40;;;1.50;;
58360;SDS011;44164;44.954;10.068;2022-09-12T05:13:40;3.35;;;1.58;;
58360;SDS011;44164;44.954;10.068;2022-09-12T05:16:08;4.35;;;1.98;;
58360;SDS011;44164;44.954;10.068;2022-09-12T05:18:35;2.10;;;1.45;;
58360;SDS011;44164;44.954;10.068;2022-09-12T05:21:03;2.38;;;1.42;;
58360;SDS011;44164;44.954;10.068;2022-09-12T05:23:31;2.20;;;1.50;;
58360;SDS011;44164;44.954;10.068;2022-09-12T05:25:58;2.30;;;1.40;;
58360;SDS011;44164;44.954;10.068;2022-09-12T05:28:29;2.40;;;1.40;;
58360;SDS011;44164;44.954;10.068;2022-09-12T05:31:30;2.53;;;1.63;;
58360;SDS011;44164;44.954;10.068;2022-09-12T05:33:50;3.78;;;1.67;;
58360;SDS011;44164;44.954;10.068;2022-09-12T05:36:18;1.95;;;1.33;;
58360;SDS011;44164;44.954;10.068;2022-09-12T05:38:48;2.40;;;1.40;;
58360;SDS011;44164;44.954;10.068;2022-09-12T05:41:16;2.65;;;1.55;;
58360;SDS011;44164;44.954;10.068;2022-09-12T05:43:54;3.55;;;1.65;;
58360;SDS011;44164;44.954;10.068;2022-09-12T05:46:22;2.35;;;1.42;;
58360;SDS011;44164;44.954;10.068;2022-09-12T05:48:50;2.67;;;1.70;;
58360;SDS011;44164;44.954;10.068;2022-09-12T05:51:18;2.55;;;1.63;;
58360;SDS011;44164;44.954;10.068;2022-09-12T05:53:46;3.20;;;1.52;;
58360;SDS011;44164;44.954;10.068;2022-09-12T05:56:14;2.53;;;1.77;;
58360;SDS011;44164;44.954;10.068;2022-09-12T05:58:43;3.40;;;1.77;;
58360;SDS011;44164;44.954;10.068;2022-09-12T06:01:11;3.10;;;1.80;;
58360;SDS011;44164;44.954;10.068;2022-09-12T06:03:41;2.80;;;1.60;;
58360;SDS011;44164;44.954;10.068;2022-09-12T06:06:09;2.92;;;1.52;;
58360;SDS011;44164;44.954;10.068;2022-09-12T06:08:43;6.88;;;1.52;;
58360;SDS011;44164;44.954;10.068;2022-09-12T06:11:11;4.38;;;1.50;;
58360;SDS011;44164;44.954;10.068;2022-09-12T06:13:42;3.83;;;1.50;;
58360;SDS011;44164;44.954;10.068;2022-09-12T06:16:18;3.42;;;1.90;;
58360;SDS011;44164;44.954;10.068;2022-09-12T06:18:50;5.13;;;2.00;;
58360;SDS011;44164;44.954;10.068;2022-09-12T06:21:18;2.88;;;1.60;;
58360;SDS011;44164;44.954;10.068;2022-09-12T06:23:45;1.90;;;1.40;;
58360;SDS011;44164;44.954;10.068;2022-09-12T06:26:13;2.92;;;1.45;;
58360;SDS011;44164;44.954;10.068;2022-09-12T06:28:41;3.75;;;1.73;;
58360;SDS011;44164;44.954;10.068;2022-09-12T06:31:10;3.15;;;1.63;;
58360;SDS011;44164;44.954;10.068;2022-09-12T06:33:39;2.70;;;1.73;;
58360;SDS011;44164;44.954;10.068;2022-09-12T06:36:07;2.60;;;1.60;;
58360;SDS011;44164;44.954;10.068;2022-09-12T06:38:39;2.22;;;1.40;;
58360;SDS011;44164;44.954;10.068;2022-09-12T06:41:06;2.22;;;1.48;;
58360;SDS011;44164;44.954;10.068;2022-09-12T06:43:33;2.10;;;1.48;;
58360;SDS011;44164;44.954;10.068;2022-09-12T06:46:00;2.97;;;1.58;;
58360;SDS011;44164;44.954;10.068;2022-09-12T06:48:27;2.03;;;1.42;;
58360;SDS011;44164;44.954;10.068;2022-09-12T06:50:57;3.28;;;1.90;;
58360;SDS011;44164;44.954;10.068;2022-09-12T06:53:34;2.30;;;1.38;;
58360;SDS011;44164;44.954;10.068;2022-09-12T06:56:05;2.28;;;1.63;;
58360;SDS011;44164;44.954;10.068;2022-09-12T06:58:35;3.80;;;1.88;;
58360;SDS011;44164;44.954;10.068;2022-09-12T07:03:30;2.45;;;1.52;;
58360;SDS011;44164;44.954;10.068;2022-09-12T07:06:01;3.13;;;1.90;;
58360;SDS011;44164;44.954;10.068;2022-09-12T07:08:37;2.80;;;1.70;;
58360;SDS011;44164;44.954;10.068;2022-09-12T07:11:11;3.30;;;1.60;;
58360;SDS011;44164;44.954;10.068;2022-09-12T07:13:42;3.08;;;1.60;;
58360;SDS011;44164;44.954;10.068;2022-09-12T07:16:10;2.45;;;1.77;;
58360;SDS011;44164;44.954;10.068;2022-09-12T07:18:37;2.92;;;1.70;;
58360;SDS011;44164;44.954;10.068;2022-09-12T07:21:05;3.25;;;1.58;;
58360;SDS011;44164;44.954;10.068;2022-09-12T07:23:33;3.38;;;1.55;;
58360;SDS011;44164;44.954;10.068;2022-09-12T07:25:59;2.22;;;1.50;;
58360;SDS011;44164;44.954;10.068;2022-09-12T07:28:26;4.55;;;1.85;;
58360;SDS011;44164;44.954;10.068;2022-09-12T07:30:54;3.30;;;2.08;;
58360;SDS011;44164;44.954;10.068;2022-09-12T07:33:25;2.90;;;1.45;;
58360;SDS011;44164;44.954;10.068;2022-09-12T07:35:52;4.50;;;1.67;;
58360;SDS011;44164;44.954;10.068;2022-09-12T07:38:19;3.28;;;1.48;;
58360;SDS011;44164;44.954;10.068;2022-09-12T07:40:46;3.50;;;1.98;;
58360;SDS011;44164;44.954;10.068;2022-09-12T07:43:12;2.65;;;1.50;;
58360;SDS011;44164;44.954;10.068;2022-09-12T07:45:38;2.67;;;1.75;;
58360;SDS011;44164;44.954;10.068;2022-09-12T07:48:07;2.75;;;1.67;;
58360;SDS011;44164;44.954;10.068;2022-09-12T07:50:34;2.07;;;1.37;;
58360;SDS011;44164;44.954;10.068;2022-09-12T07:53:04;3.17;;;1.45;;
58360;SDS011;44164;44.954;10.068;2022-09-12T07:55:31;3.70;;;1.80;;
58360;SDS011;44164;44.954;10.068;2022-09-12T07:57:57;2.58;;;1.48;;
58360;SDS011;44164;44.954;10.068;2022-09-12T08:00:23;2.60;;;1.80;;
58360;SDS011;44164;44.954;10.068;2022-09-12T08:02:50;3.65;;;1.73;;
58360;SDS011;44164;44.954;10.068;2022-09-12T08:05:17;2.92;;;1.63;;
58360;SDS011;44164;44.954;10.068;2022-09-12T08:07:43;3.13;;;1.67;;
58360;SDS011;44164;44.954;10.068;2022-09-12T08:10:09;3.05;;;1.45;;
58360;SDS011;44164;44.954;10.068;2022-09-12T08:12:36;2.25;;;1.38;;
58360;SDS011;44164;44.954;10.068;2022-09-12T08:15:02;3.90;;;1.77;;
58360;SDS011;44164;44.954;10.068;2022-09-12T08:17:29;2.57;;;1.53;;
58360;SDS011;44164;44.954;10.068;2022-09-12T08:19:55;2.80;;;1.80;;
58360;SDS011;44164;44.954;10.068;2022-09-12T08:22:21;2.58;;;1.73;;
58360;SDS011;44164;44.954;10.068;2022-09-12T08:24:48;2.30;;;1.70;;
58360;SDS011;44164;44.954;10.068;2022-09-12T08:27:15;4.90;;;1.70;;
58360;SDS011;44164;44.954;10.068;2022-09-12T08:29:41;2.50;;;1.70;;
58360;SDS011;44164;44.954;10.068;2022-09-12T08:32:07;2.65;;;1.55;;
58360;SDS011;44164;44.954;10.068;2022-09-12T08:34:33;2.58;;;1.50;;
58360;SDS011;44164;44.954;10.068;2022-09-12T08:37:00;2.78;;;1.73;;
58360;SDS011;44164;44.954;10.068;2022-09-12T08:39:26;3.00;;;1.75;;
58360;SDS011;44164;44.954;10.068;2022-09-12T08:41:57;2.90;;;1.60;;
58360;SDS011;44164;44.954;10.068;2022-09-12T08:52:19;2.53;;;1.73;;
58360;SDS011;44164;44.954;10.068;2022-09-12T08:54:46;4.05;;;1.85;;
58360;SDS011;44164;44.954;10.068;2022-09-12T08:57:13;4.03;;;1.75;;
58360;SDS011;44164;44.954;10.068;2022-09-12T08:59:41;2.22;;;1.60;;
58360;SDS011;44164;44.954;10.068;2022-09-12T09:18:51;3.20;;;2.40;;
58360;SDS011;44164;44.954;10.068;2022-09-12T09:23:49;4.25;;;1.88;;
58360;SDS011;44164;44.954;10.068;2022-09-12T09:26:19;4.97;;;2.88;;
58360;SDS011;44164;44.954;10.068;2022-09-12T09:31:23;3.53;;;2.47;;
58360;SDS011;44164;44.954;10.068;2022-09-12T09:33:52;4.57;;;2.30;;
58360;SDS011;44164;44.954;10.068;2022-09-12T09:36:39;3.85;;;2.53;;
58360;SDS011;44164;44.954;10.068;2022-09-12T09:39:23;4.63;;;2.03;;
58360;SDS011;44164;44.954;10.068;2022-09-12T09:44:35;3.63;;;2.25;;
58360;SDS011;44164;44.954;10.068;2022-09-12T09:47:01;3.45;;;2.10;;
58360;SDS011;44164;44.954;10.068;2022-09-12T09:49:29;4.15;;;2.35;;
58360;SDS011;44164;44.954;10.068;2022-09-12T09:51:56;4.68;;;2.10;;
58360;SDS011;44164;44.954;10.068;2022-09-12T09:54:27;5.90;;;2.53;;
58360;SDS011;44164;44.954;10.068;2022-09-12T09:56:57;6.35;;;1.85;;
58360;SDS011;44164;44.954;10.068;2022-09-12T09:59:27;3.08;;;2.10;;
58360;SDS011;44164;44.954;10.068;2022-09-12T10:04:23;6.18;;;2.38;;
58360;SDS011;44164;44.954;10.068;2022-09-12T10:06:55;4.65;;;2.47;;
58360;SDS011;44164;44.954;10.068;2022-09-12T10:09:30;4.15;;;1.98;;
58360;SDS011;44164;44.954;10.068;2022-09-12T10:12:46;3.75;;;2.10;;
58360;SDS011;44164;44.954;10.068;2022-09-12T10:14:56;4.70;;;2.03;;
58360;SDS011;44164;44.954;10.068;2022-09-12T10:17:27;3.65;;;2.10;;
58360;SDS011;44164;44.954;10.068;2022-09-12T10:19:56;3.85;;;1.73;;
58360;SDS011;44164;44.954;10.068;2022-09-12T10:22:24;4.43;;;1.98;;
58360;SDS011;44164;44.954;10.068;2022-09-12T10:24:52;7.50;;;2.33;;
58360;SDS011;44164;44.954;10.068;2022-09-12T10:27:21;4.35;;;2.10;;
58360;SDS011;44164;44.954;10.068;2022-09-12T10:32:20;3.63;;;1.98;;
58360;SDS011;44164;44.954;10.068;2022-09-12T10:35:42;3.25;;;1.80;;
58360;SDS011;44164;44.954;10.068;2022-09-12T10:40:21;6.47;;;2.63;;
58360;SDS011;44164;44.954;10.068;2022-09-12T10:42:54;3.42;;;2.10;;
58360;SDS011;44164;44.954;10.068;2022-09-12T10:47:58;3.08;;;1.85;;
58360;SDS011;44164;44.954;10.068;2022-09-12T10:50:35;3.55;;;1.90;;
58360;SDS011;44164;44.954;10.068;2022-09-12T10:53:19;3.45;;;1.85;;
58360;SDS011;44164;44.954;10.068;2022-09-12T11:07:01;3.33;;;2.13;;
58360;SDS011;44164;44.954;10.068;2022-09-12T11:12:37;3.92;;;2.05;;
58360;SDS011;44164;44.954;10.068;2022-09-12T11:18:00;2.40;;;1.73;;
58360;SDS011;44164;44.954;10.068;2022-09-12T11:34:25;6.88;;;2.60;;
58360;SDS011;44164;44.954;10.068;2022-09-12T11:37:07;6.07;;;2.60;;
58360;SDS011;44164;44.954;10.068;2022-09-12T11:39:39;5.60;;;2.60;;
58360;SDS011;44164;44.954;10.068;2022-09-12T11:42:08;7.97;;;3.22;;
58360;SDS011;44164;44.954;10.068;2022-09-12T11:44:39;6.38;;;2.42;;
58360;SDS011;44164;44.954;10.068;2022-09-12T11:47:09;8.13;;;3.42;;
58360;SDS011;44164;44.954;10.068;2022-09-12T11:49:38;7.70;;;2.88;;
58360;SDS011;44164;44.954;10.068;2022-09-12T11:52:16;4.88;;;2.22;;
58360;SDS011;44164;44.954;10.068;2022-09-12T12:08:30;4.75;;;2.40;;
58360;SDS011;44164;44.954;10.068;2022-09-12T12:10:57;6.25;;;2.10;;
58360;SDS011;44164;44.954;10.068;2022-09-12T12:16:26;4.50;;;2.33;;
58360;SDS011;44164;44.954;10.068;2022-09-12T12:19:02;4.60;;;2.20;;
58360;SDS011;44164;44.954;10.068;2022-09-12T12:36:56;6.63;;;1.80;;
58360;SDS011;44164;44.954;10.068;2022-09-12T12:52:23;2.85;;;1.80;;
58360;SDS011;44164;44.954;10.068;2022-09-12T12:54:54;5.45;;;2.03;;
58360;SDS011;44164;44.954;10.068;2022-09-12T13:00:39;3.53;;;1.85;;
58360;SDS011;44164;44.954;10.068;2022-09-12T13:05:29;4.07;;;2.35;;
58360;SDS011;44164;44.954;10.068;2022-09-12T13:08:31;3.00;;;1.60;;
58360;SDS011;44164;44.954;10.068;2022-09-12T13:11:00;3.30;;;1.98;;
58360;SDS011;44164;44.954;10.068;2022-09-12T13:16:01;4.50;;;2.22;;
58360;SDS011;44164;44.954;10.068;2022-09-12T13:18:29;3.67;;;1.65;;
58360;SDS011;44164;44.954;10.068;2022-09-12T13:21:19;4.65;;;2.22;;
58360;SDS011;44164;44.954;10.068;2022-09-12T13:24:04;2.83;;;1.73;;
58360;SDS011;44164;44.954;10.068;2022-09-12T13:26:41;3.55;;;1.75;;
58360;SDS011;44164;44.954;10.068;2022-09-12T13:31:56;3.37;;;1.63;;
58360;SDS011;44164;44.954;10.068;2022-09-12T13:39:26;4.60;;;2.20;;
58360;SDS011;44164;44.954;10.068;2022-09-12T13:45:31;3.83;;;2.00;;
58360;SDS011;44164;44.954;10.068;2022-09-12T13:47:55;3.42;;;1.88;;
58360;SDS011;44164;44.954;10.068;2022-09-12T13:50:25;4.65;;;1.58;;
58360;SDS011;44164;44.954;10.068;2022-09-12T13:52:57;3.35;;;2.00;;
58360;SDS011;44164;44.954;10.068;2022-09-12T13:57:58;4.93;;;1.92;;
58360;SDS011;44164;44.954;10.068;2022-09-12T14:00:29;4.00;;;1.95;;
58360;SDS011;44164;44.954;10.068;2022-09-12T14:02:57;2.78;;;1.90;;
58360;SDS011;44164;44.954;10.068;2022-09-12T14:05:43;3.78;;;1.80;;
58360;SDS011;44164;44.954;10.068;2022-09-12T14:08:13;6.95;;;1.77;;
58360;SDS011;44164;44.954;10.068;2022-09-12T14:10:43;2.97;;;2.03;;
58360;SDS011;44164;44.954;10.068;2022-09-12T14:13:14;3.10;;;1.65;;
58360;SDS011;44164;44.954;10.068;2022-09-12T14:15:44;5.07;;;1.40;;
58360;SDS011;44164;44.954;10.068;2022-09-12T14:18:23;2.83;;;1.58;;
58360;SDS011;44164;44.954;10.068;2022-09-12T14:20:50;3.67;;;1.52;;
58360;SDS011;44164;44.954;10.068;2022-09-12T14:23:26;2.50;;;1.42;;
58360;SDS011;44164;44.954;10.068;2022-09-12T14:25:55;3.72;;;1.85;;
58360;SDS011;44164;44.954;10.068;2022-09-12T14:28:21;2.40;;;1.35;;
58360;SDS011;44164;44.954;10.068;2022-09-12T14:31:04;4.47;;;1.50;;
58360;SDS011;44164;44.954;10.068;2022-09-12T14:34:18;2.60;;;1.40;;
58360;SDS011;44164;44.954;10.068;2022-09-12T14:38:46;2.90;;;1.50;;
58360;SDS011;44164;44.954;10.068;2022-09-12T14:41:22;4.47;;;1.52;;
58360;SDS011;44164;44.954;10.068;2022-09-12T14:43:53;5.38;;;1.63;;
58360;SDS011;44164;44.954;10.068;2022-09-12T14:48:52;7.75;;;1.95;;
58360;SDS011;44164;44.954;10.068;2022-09-12T14:51:40;4.43;;;1.40;;
58360;SDS011;44164;44.954;10.068;2022-09-12T14:57:28;10.13;;;1.50;;
58360;SDS011;44164;44.954;10.068;2022-09-12T15:00:31;10.98;;;1.83;;
58360;SDS011;44164;44.954;10.068;2022-09-12T15:02:51;3.47;;;1.30;;
58360;SDS011;44164;44.954;10.068;2022-09-12T15:05:19;4.68;;;1.15;;
58360;SDS011;44164;44.954;10.068;2022-09-12T15:10:18;3.35;;;1.65;;
58360;SDS011;44164;44.954;10.068;2022-09-12T15:12:56;4.95;;;1.42;;
58360;SDS011;44164;44.954;10.068;2022-09-12T15:15:34;8.15;;;1.58;;
58360;SDS011;44164;44.954;10.068;2022-09-12T15:18:01;2.42;;;1.48;;
58360;SDS011;44164;44.954;10.068;2022-09-12T15:22:56;5.20;;;1.42;;
58360;SDS011;44164;44.954;10.068;2022-09-12T15:25:22;5.43;;;1.80;;
58360;SDS011;44164;44.954;10.068;2022-09-12T15:27:51;2.75;;;1.48;;
58360;SDS011;44164;44.954;10.068;2022-09-12T15:30:18;2.95;;;1.23;;
58360;SDS011;44164;44.954;10.068;2022-09-12T15:32:44;4.63;;;1.48;;
58360;SDS011;44164;44.954;10.068;2022-09-12T15:35:18;5.22;;;2.05;;
58360;SDS011;44164;44.954;10.068;2022-09-12T15:37:47;13.13;;;2.03;;
58360;SDS011;44164;44.954;10.068;2022-09-12T15:40:14;3.25;;;1.60;;
58360;SDS011;44164;44.954;10.068;2022-09-12T15:42:41;4.07;;;1.63;;
58360;SDS011;44164;44.954;10.068;2022-09-12T15:45:25;3.00;;;1.63;;
58360;SDS011;44164;44.954;10.068;2022-09-12T15:47:53;3.30;;;1.30;;
58360;SDS011;44164;44.954;10.068;2022-09-12T15:50:19;4.88;;;2.13;;
58360;SDS011;44164;44.954;10.068;2022-09-12T15:52:45;3.22;;;1.65;;
58360;SDS011;44164;44.954;10.068;2022-09-12T15:55:19;3.95;;;1.40;;
58360;SDS011;44164;44.954;10.068;2022-09-12T15:57:47;3.92;;;1.75;;
58360;SDS011;44164;44.954;10.068;2022-09-12T16:00:14;2.60;;;1.38;;
58360;SDS011;44164;44.954;10.068;2022-09-12T16:02:42;3.67;;;1.48;;
58360;SDS011;44164;44.954;10.068;2022-09-12T16:05:14;5.60;;;1.50;;
58360;SDS011;44164;44.954;10.068;2022-09-12T16:07:42;2.15;;;1.20;;
58360;SDS011;44164;44.954;10.068;2022-09-12T16:10:19;2.40;;;1.30;;
58360;SDS011;44164;44.954;10.068;2022-09-12T16:15:14;4.85;;;1.48;;
58360;SDS011;44164;44.954;10.068;2022-09-12T16:17:42;3.58;;;1.17;;
58360;SDS011;44164;44.954;10.068;2022-09-12T16:20:08;4.85;;;1.30;;
58360;SDS011;44164;44.954;10.068;2022-09-12T16:22:35;2.90;;;1.08;;
58360;SDS011;44164;44.954;10.068;2022-09-12T16:25:01;2.47;;;1.35;;
58360;SDS011;44164;44.954;10.068;2022-09-12T16:27:28;3.20;;;1.92;;
58360;SDS011;44164;44.954;10.068;2022-09-12T16:29:55;1.85;;;0.93;;
58360;SDS011;44164;44.954;10.068;2022-09-12T16:32:21;2.28;;;1.20;;
58360;SDS011;44164;44.954;10.068;2022-09-12T16:34:47;1.83;;;1.17;;
58360;SDS011;44164;44.954;10.068;2022-09-12T16:37:15;2.88;;;1.67;;
58360;SDS011;44164;44.954;10.068;2022-09-12T16:39:41;2.60;;;1.08;;
58360;SDS011;44164;44.954;10.068;2022-09-12T16:42:08;3.00;;;1.40;;
58360;SDS011;44164;44.954;10.068;2022-09-12T16:44:34;2.10;;;1.00;;
58360;SDS011;44164;44.954;10.068;2022-09-12T16:47:00;2.35;;;1.10;;
58360;SDS011;44164;44.954;10.068;2022-09-12T16:49:26;2.90;;;1.55;;
58360;SDS011;44164;44.954;10.068;2022-09-12T16:51:53;1.73;;;1.23;;
58360;SDS011;44164;44.954;10.068;2022-09-12T16:54:19;3.00;;;1.70;;
58360;SDS011;44164;44.954;10.068;2022-09-12T16:56:46;2.70;;;1.17;;
58360;SDS011;44164;44.954;10.068;2022-09-12T16:59:12;2.30;;;1.13;;
58360;SDS011;44164;44.954;10.068;2022-09-12T17:01:41;2.65;;;1.25;;
58360;SDS011;44164;44.954;10.068;2022-09-12T17:04:08;2.35;;;1.20;;
58360;SDS011;44164;44.954;10.068;2022-09-12T17:06:35;2.30;;;1.38;;
58360;SDS011;44164;44.954;10.068;2022-09-12T17:09:01;2.28;;;1.08;;
58360;SDS011;44164;44.954;10.068;2022-09-12T17:11:33;2.25;;;1.23;;
58360;SDS011;44164;44.954;10.068;2022-09-12T17:14:02;1.77;;;1.13;;
58360;SDS011;44164;44.954;10.068;2022-09-12T17:16:37;3.08;;;1.40;;
58360;SDS011;44164;44.954;10.068;2022-09-12T17:19:07;2.70;;;1.48;;
58360;SDS011;44164;44.954;10.068;2022-09-12T17:21:37;1.90;;;1.10;;
58360;SDS011;44164;44.954;10.068;2022-09-12T17:24:03;2.90;;;1.17;;
58360;SDS011;44164;44.954;10.068;2022-09-12T17:26:30;3.50;;;1.50;;
58360;SDS011;44164;44.954;10.068;2022-09-12T17:28:56;3.65;;;1.58;;
58360;SDS011;44164;44.954;10.068;2022-09-12T17:31:22;2.40;;;1.20;;
58360;SDS011;44164;44.954;10.068;2022-09-12T17:33:48;2.78;;;1.30;;
58360;SDS011;44164;44.954;10.068;2022-09-12T17:36:15;3.55;;;1.27;;
58360;SDS011;44164;44.954;10.068;2022-09-12T17:38:43;2.17;;;1.20;;
58360;SDS011;44164;44.954;10.068;2022-09-12T17:41:11;1.95;;;1.17;;
58360;SDS011;44164;44.954;10.068;2022-09-12T17:43:40;2.08;;;0.93;;
58360;SDS011;44164;44.954;10.068;2022-09-12T17:46:07;2.42;;;1.13;;
58360;SDS011;44164;44.954;10.068;2022-09-12T17:48:33;2.83;;;1.40;;
58360;SDS011;44164;44.954;10.068;2022-09-12T17:51:07;2.53;;;1.40;;
58360;SDS011;44164;44.954;10.068;2022-09-12T17:53:34;2.35;;;1.10;;
58360;SDS011;44164;44.954;10.068;2022-09-12T17:56:03;2.80;;;1.35;;
58360;SDS011;44164;44.954;10.068;2022-09-12T17:58:30;2.03;;;0.82;;
58360;SDS011;44164;44.954;10.068;2022-09-12T18:01:03;1.83;;;1.10;;
58360;SDS011;44164;44.954;10.068;2022-09-12T18:03:56;3.03;;;1.30;;
58360;SDS011;44164;44.954;10.068;2022-09-12T18:06:25;2.35;;;1.13;;
58360;SDS011;44164;44.954;10.068;2022-09-12T18:08:52;2.33;;;1.20;;
58360;SDS011;44164;44.954;10.068;2022-09-12T18:11:19;3.10;;;1.33;;
58360;SDS011;44164;44.954;10.068;2022-09-12T18:13:45;2.10;;;1.30;;
58360;SDS011;44164;44.954;10.068;2022-09-12T18:16:12;2.75;;;1.30;;
58360;SDS011;44164;44.954;10.068;2022-09-12T18:18:38;3.93;;;1.37;;
58360;SDS011;44164;44.954;10.068;2022-09-12T18:21:05;2.08;;;1.10;;